sensor_id;sensor_type;location;lat;lon;timestamp;P1;durP1;ratioP1;P2;durP2;ratioP2
36501;SDS011;25393;46.108;3.390;2022-09-20T00:03:35;2.67;;;0.80;;
36501;SDS011;25393;46.108;3.390;2022-09-20T00:06:02;1.90;;;1.10;;
36501;SDS011;25393;46.108;3.390;2022-09-20T00:08:30;2.42;;;0.80;;
36501;SDS011;25393;46.108;3.390;2022-09-20T00:11:06;2.63;;;0.90;;
36501;SDS011;25393;46.108;3.390;2022-09-20T00:13:36;3.40;;;1.00;;
36501;SDS011;25393;46.108;3.390;2022-09-20T00:16:04;2.35;;;1.00;;
36501;SDS011;25393;46.108;3.390;2022-09-20T00:18:33;4.10;;;0.90;;
36501;SDS011;25393;46.108;3.390;2022-09-20T00:20:59;2.67;;;0.95;;
36501;SDS011;25393;46.108;3.390;2022-09-20T00:23:26;4.57;;;0.80;;
36501;SDS011;25393;46.108;3.390;2022-09-20T00:25:53;1.70;;;0.88;;
36501;SDS011;25393;46.108;3.390;2022-09-20T00:28:24;3.17;;;1.35;;
36501;SDS011;25393;46.108;3.390;2022-09-20T00:30:52;1.85;;;0.70;;
36501;SDS011;25393;46.108;3.390;2022-09-20T00:33:21;2.20;;;1.00;;
36501;SDS011;25393;46.108;3.390;2022-09-20T00:35:49;2.47;;;0.80;;
36501;SDS011;25393;46.108;3.390;2022-09-20T00:38:15;3.08;;;0.77;;
36501;SDS011;25393;46.108;3.390;2022-09-20T00:40:43;1.17;;;0.75;;
36501;SDS011;25393;46.108;3.390;2022-09-20T00:43:16;0.95;;;0.63;;
36501;SDS011;25393;46.108;3.390;2022-09-20T00:45:44;1.33;;;0.73;;
36501;SDS011;25393;46.108;3.390;2022-09-20T00:48:17;1.83;;;0.60;;
36501;SDS011;25393;46.108;3.390;2022-09-20T00:51:04;0.73;;;0.57;;
36501;SDS011;25393;46.108;3.390;2022-09-20T00:53:38;2.50;;;0.73;;
36501;SDS011;25393;46.108;3.390;2022-09-20T00:56:15;7.57;;;0.98;;
36501;SDS011;25393;46.108;3.390;2022-09-20T00:58:46;1.73;;;1.05;;
36501;SDS011;25393;46.108;3.390;2022-09-20T01:01:18;0.75;;;0.60;;
36501;SDS011;25393;46.108;3.390;2022-09-20T01:03:45;3.40;;;0.70;;
36501;SDS011;25393;46.108;3.390;2022-09-20T01:06:13;5.45;;;1.30;;
36501;SDS011;25393;46.108;3.390;2022-09-20T01:08:43;4.78;;;0.70;;
36501;SDS011;25393;46.108;3.390;2022-09-20T01:11:13;1.85;;;0.80;;
36501;SDS011;25393;46.108;3.390;2022-09-20T01:13:40;7.15;;;1.20;;
36501;SDS011;25393;46.108;3.390;2022-09-20T01:16:07;3.08;;;0.80;;
36501;SDS011;25393;46.108;3.390;2022-09-20T01:18:34;4.03;;;1.10;;
36501;SDS011;25393;46.108;3.390;2022-09-20T01:21:03;3.10;;;0.95;;
36501;SDS011;25393;46.108;3.390;2022-09-20T01:23:51;2.15;;;0.80;;
36501;SDS011;25393;46.108;3.390;2022-09-20T01:26:23;1.63;;;0.82;;
36501;SDS011;25393;46.108;3.390;2022-09-20T01:29:06;5.97;;;1.60;;
36501;SDS011;25393;46.108;3.390;2022-09-20T01:31:35;3.92;;;0.88;;
36501;SDS011;25393;46.108;3.390;2022-09-20T01:34:10;3.53;;;1.00;;
36501;SDS011;25393;46.108;3.390;2022-09-20T01:39:36;4.70;;;1.70;;
36501;SDS011;25393;46.108;3.390;2022-09-20T01:42:20;3.72;;;0.95;;
36501;SDS011;25393;46.108;3.390;2022-09-20T01:51:00;2.20;;;0.93;;
36501;SDS011;25393;46.108;3.390;2022-09-20T01:53:54;1.40;;;0.93;;
36501;SDS011;25393;46.108;3.390;2022-09-20T01:59:44;2.92;;;0.85;;
36501;SDS011;25393;46.108;3.390;2022-09-20T02:02:35;6.43;;;0.90;;
36501;SDS011;25393;46.108;3.390;2022-09-20T02:05:16;5.53;;;1.65;;
36501;SDS011;25393;46.108;3.390;2022-09-20T02:13:28;3.08;;;0.90;;
36501;SDS011;25393;46.108;3.390;2022-09-20T02:24:40;4.10;;;1.15;;
36501;SDS011;25393;46.108;3.390;2022-09-20T02:27:20;5.68;;;1.10;;
36501;SDS011;25393;46.108;3.390;2022-09-20T02:35:29;2.35;;;0.98;;
36501;SDS011;25393;46.108;3.390;2022-09-20T02:46:12;4.30;;;0.95;;
36501;SDS011;25393;46.108;3.390;2022-09-20T02:52:28;2.33;;;0.95;;
36501;SDS011;25393;46.108;3.390;2022-09-20T03:12:28;1.20;;;0.85;;
36501;SDS011;25393;46.108;3.390;2022-09-20T03:14:44;2.83;;;0.70;;
36501;SDS011;25393;46.108;3.390;2022-09-20T03:17:21;1.42;;;0.88;;
36501;SDS011;25393;46.108;3.390;2022-09-20T03:42:28;3.50;;;0.70;;
36501;SDS011;25393;46.108;3.390;2022-09-20T03:45:14;5.25;;;1.20;;
36501;SDS011;25393;46.108;3.390;2022-09-20T03:48:14;0.93;;;0.70;;
36501;SDS011;25393;46.108;3.390;2022-09-20T04:10:34;2.92;;;0.90;;
36501;SDS011;25393;46.108;3.390;2022-09-20T04:18:52;2.42;;;1.38;;
36501;SDS011;25393;46.108;3.390;2022-09-20T04:21:26;1.48;;;0.75;;
36501;SDS011;25393;46.108;3.390;2022-09-20T04:26:37;5.10;;;1.02;;
36501;SDS011;25393;46.108;3.390;2022-09-20T04:35:29;4.35;;;0.95;;
36501;SDS011;25393;46.108;3.390;2022-09-20T04:38:28;1.52;;;0.73;;
36501;SDS011;25393;46.108;3.390;2022-09-20T04:52:28;2.92;;;0.90;;
36501;SDS011;25393;46.108;3.390;2022-09-20T04:57:54;1.00;;;0.68;;
36501;SDS011;25393;46.108;3.390;2022-09-20T05:28:55;2.72;;;0.73;;
36501;SDS011;25393;46.108;3.390;2022-09-20T05:31:25;1.45;;;0.63;;
36501;SDS011;25393;46.108;3.390;2022-09-20T05:34:07;1.40;;;0.80;;
36501;SDS011;25393;46.108;3.390;2022-09-20T05:39:41;2.63;;;0.88;;
36501;SDS011;25393;46.108;3.390;2022-09-20T05:42:19;4.25;;;1.20;;
36501;SDS011;25393;46.108;3.390;2022-09-20T05:50:57;1.40;;;1.05;;
36501;SDS011;25393;46.108;3.390;2022-09-20T05:56:39;0.70;;;0.70;;
36501;SDS011;25393;46.108;3.390;2022-09-20T05:59:30;2.55;;;1.20;;
36501;SDS011;25393;46.108;3.390;2022-09-20T06:02:08;3.50;;;1.42;;
36501;SDS011;25393;46.108;3.390;2022-09-20T06:04:43;4.00;;;1.42;;
36501;SDS011;25393;46.108;3.390;2022-09-20T06:10:04;2.35;;;0.90;;
36501;SDS011;25393;46.108;3.390;2022-09-20T06:12:49;5.88;;;1.52;;
36501;SDS011;25393;46.108;3.390;2022-09-20T06:21:08;5.53;;;1.00;;
36501;SDS011;25393;46.108;3.390;2022-09-20T06:23:48;2.83;;;1.10;;
36501;SDS011;25393;46.108;3.390;2022-09-20T06:26:16;3.50;;;0.95;;
36501;SDS011;25393;46.108;3.390;2022-09-20T06:28:53;3.80;;;0.70;;
36501;SDS011;25393;46.108;3.390;2022-09-20T06:31:25;2.90;;;0.93;;
36501;SDS011;25393;46.108;3.390;2022-09-20T06:33:55;4.30;;;1.08;;
36501;SDS011;25393;46.108;3.390;2022-09-20T06:36:31;2.35;;;1.05;;
36501;SDS011;25393;46.108;3.390;2022-09-20T06:42:27;0.95;;;0.80;;
36501;SDS011;25393;46.108;3.390;2022-09-20T06:44:54;3.40;;;1.02;;
36501;SDS011;25393;46.108;3.390;2022-09-20T06:47:21;6.05;;;1.10;;
36501;SDS011;25393;46.108;3.390;2022-09-20T06:49:48;4.55;;;1.33;;
36501;SDS011;25393;46.108;3.390;2022-09-20T06:52:18;4.57;;;0.90;;
36501;SDS011;25393;46.108;3.390;2022-09-20T06:54:52;3.22;;;0.80;;
36501;SDS011;25393;46.108;3.390;2022-09-20T06:57:26;3.05;;;0.90;;
36501;SDS011;25393;46.108;3.390;2022-09-20T06:59:58;3.45;;;1.20;;
36501;SDS011;25393;46.108;3.390;2022-09-20T07:02:25;2.22;;;1.10;;
36501;SDS011;25393;46.108;3.390;2022-09-20T07:04:52;1.05;;;0.80;;
36501;SDS011;25393;46.108;3.390;2022-09-20T07:07:20;4.55;;;1.10;;
36501;SDS011;25393;46.108;3.390;2022-09-20T07:09:47;2.35;;;1.20;;
36501;SDS011;25393;46.108;3.390;2022-09-20T07:12:13;2.50;;;1.00;;
36501;SDS011;25393;46.108;3.390;2022-09-20T07:14:40;5.53;;;1.02;;
36501;SDS011;25393;46.108;3.390;2022-09-20T07:17:07;1.25;;;0.80;;
36501;SDS011;25393;46.108;3.390;2022-09-20T07:19:34;2.20;;;1.23;;
36501;SDS011;25393;46.108;3.390;2022-09-20T07:22:02;3.90;;;1.20;;
36501;SDS011;25393;46.108;3.390;2022-09-20T07:24:28;4.00;;;1.05;;
36501;SDS011;25393;46.108;3.390;2022-09-20T07:27:01;9.45;;;1.48;;
36501;SDS011;25393;46.108;3.390;2022-09-20T07:29:30;7.57;;;1.10;;
36501;SDS011;25393;46.108;3.390;2022-09-20T07:31:57;3.25;;;1.10;;
36501;SDS011;25393;46.108;3.390;2022-09-20T07:34:24;3.90;;;1.23;;
36501;SDS011;25393;46.108;3.390;2022-09-20T07:36:50;2.17;;;1.55;;
36501;SDS011;25393;46.108;3.390;2022-09-20T07:39:18;8.30;;;1.40;;
36501;SDS011;25393;46.108;3.390;2022-09-20T07:41:45;5.60;;;1.00;;
36501;SDS011;25393;46.108;3.390;2022-09-20T07:44:14;7.22;;;1.02;;
36501;SDS011;25393;46.108;3.390;2022-09-20T07:46:53;4.80;;;1.20;;
36501;SDS011;25393;46.108;3.390;2022-09-20T07:49:23;7.78;;;1.58;;
36501;SDS011;25393;46.108;3.390;2022-09-20T07:51:52;4.55;;;1.38;;
36501;SDS011;25393;46.108;3.390;2022-09-20T07:54:19;4.50;;;1.20;;
36501;SDS011;25393;46.108;3.390;2022-09-20T07:56:46;8.35;;;1.88;;
36501;SDS011;25393;46.108;3.390;2022-09-20T07:59:13;4.07;;;1.40;;
36501;SDS011;25393;46.108;3.390;2022-09-20T08:01:40;3.65;;;1.25;;
36501;SDS011;25393;46.108;3.390;2022-09-20T08:04:08;3.17;;;1.42;;
36501;SDS011;25393;46.108;3.390;2022-09-20T08:06:35;7.25;;;1.50;;
36501;SDS011;25393;46.108;3.390;2022-09-20T08:09:03;4.32;;;1.38;;
36501;SDS011;25393;46.108;3.390;2022-09-20T08:11:36;7.10;;;1.45;;
36501;SDS011;25393;46.108;3.390;2022-09-20T08:14:04;4.50;;;1.67;;
36501;SDS011;25393;46.108;3.390;2022-09-20T08:16:44;4.88;;;1.42;;
36501;SDS011;25393;46.108;3.390;2022-09-20T08:19:14;7.70;;;1.48;;
36501;SDS011;25393;46.108;3.390;2022-09-20T08:21:42;7.10;;;1.00;;
36501;SDS011;25393;46.108;3.390;2022-09-20T08:24:09;2.75;;;1.00;;
36501;SDS011;25393;46.108;3.390;2022-09-20T08:26:36;2.60;;;1.17;;
36501;SDS011;25393;46.108;3.390;2022-09-20T08:29:04;2.88;;;1.10;;
36501;SDS011;25393;46.108;3.390;2022-09-20T08:31:32;4.90;;;1.00;;
36501;SDS011;25393;46.108;3.390;2022-09-20T08:34:02;7.88;;;1.33;;
36501;SDS011;25393;46.108;3.390;2022-09-20T08:36:32;9.02;;;1.10;;
36501;SDS011;25393;46.108;3.390;2022-09-20T08:39:02;5.45;;;0.88;;
36501;SDS011;25393;46.108;3.390;2022-09-20T08:47:18;6.90;;;1.42;;
36501;SDS011;25393;46.108;3.390;2022-09-20T08:49:50;4.95;;;1.63;;
36501;SDS011;25393;46.108;3.390;2022-09-20T08:52:32;7.63;;;1.33;;
36501;SDS011;25393;46.108;3.390;2022-09-20T08:55:04;6.85;;;1.17;;
36501;SDS011;25393;46.108;3.390;2022-09-20T08:57:42;6.00;;;1.45;;
36501;SDS011;25393;46.108;3.390;2022-09-20T09:00:15;4.47;;;1.30;;
36501;SDS011;25393;46.108;3.390;2022-09-20T09:02:47;11.27;;;1.88;;
36501;SDS011;25393;46.108;3.390;2022-09-20T09:05:28;8.07;;;3.88;;
36501;SDS011;25393;46.108;3.390;2022-09-20T09:08:01;4.30;;;3.90;;
36501;SDS011;25393;46.108;3.390;2022-09-20T09:10:34;6.85;;;3.70;;
36501;SDS011;25393;46.108;3.390;2022-09-20T09:13:15;5.05;;;4.50;;
36501;SDS011;25393;46.108;3.390;2022-09-20T09:15:48;7.18;;;3.90;;
36501;SDS011;25393;46.108;3.390;2022-09-20T09:18:21;14.85;;;4.28;;
36501;SDS011;25393;46.108;3.390;2022-09-20T09:20:57;4.90;;;4.10;;
36501;SDS011;25393;46.108;3.390;2022-09-20T09:23:25;8.45;;;3.63;;
36501;SDS011;25393;46.108;3.390;2022-09-20T09:25:53;12.02;;;4.85;;
36501;SDS011;25393;46.108;3.390;2022-09-20T09:28:24;3.95;;;3.45;;
36501;SDS011;25393;46.108;3.390;2022-09-20T09:30:53;7.32;;;3.63;;
36501;SDS011;25393;46.108;3.390;2022-09-20T09:33:41;4.75;;;4.15;;
36501;SDS011;25393;46.108;3.390;2022-09-20T09:36:14;6.43;;;3.75;;
36501;SDS011;25393;46.108;3.390;2022-09-20T09:38:45;3.92;;;3.50;;
36501;SDS011;25393;46.108;3.390;2022-09-20T09:46:36;4.38;;;3.53;;
36501;SDS011;25393;46.108;3.390;2022-09-20T09:49:14;5.30;;;3.53;;
36501;SDS011;25393;46.108;3.390;2022-09-20T09:54:50;7.38;;;3.40;;
36501;SDS011;25393;46.108;3.390;2022-09-20T10:21:29;7.72;;;3.65;;
36501;SDS011;25393;46.108;3.390;2022-09-20T10:38:17;5.57;;;3.17;;
36501;SDS011;25393;46.108;3.390;2022-09-20T10:40:57;7.05;;;3.15;;
36501;SDS011;25393;46.108;3.390;2022-09-20T10:46:52;4.65;;;4.13;;
36501;SDS011;25393;46.108;3.390;2022-09-20T10:49:48;6.00;;;3.13;;
36501;SDS011;25393;46.108;3.390;2022-09-20T11:06:49;7.45;;;3.58;;
36501;SDS011;25393;46.108;3.390;2022-09-20T11:09:32;9.40;;;3.60;;
36501;SDS011;25393;46.108;3.390;2022-09-20T11:14:59;6.20;;;3.85;;
36501;SDS011;25393;46.108;3.390;2022-09-20T11:17:43;8.30;;;4.53;;
36501;SDS011;25393;46.108;3.390;2022-09-20T11:20:26;7.00;;;3.50;;
36501;SDS011;25393;46.108;3.390;2022-09-20T11:23:02;8.77;;;3.70;;
36501;SDS011;25393;46.108;3.390;2022-09-20T11:25:44;7.88;;;4.15;;
36501;SDS011;25393;46.108;3.390;2022-09-20T11:33:30;7.82;;;2.90;;
36501;SDS011;25393;46.108;3.390;2022-09-20T11:36:13;3.55;;;3.25;;
36501;SDS011;25393;46.108;3.390;2022-09-20T11:41:29;5.05;;;3.17;;
36501;SDS011;25393;46.108;3.390;2022-09-20T11:44:01;4.78;;;3.00;;
36501;SDS011;25393;46.108;3.390;2022-09-20T11:46:35;7.57;;;3.42;;
36501;SDS011;25393;46.108;3.390;2022-09-20T11:49:15;6.50;;;3.00;;
36501;SDS011;25393;46.108;3.390;2022-09-20T11:57:15;4.50;;;2.85;;
36501;SDS011;25393;46.108;3.390;2022-09-20T11:59:48;4.90;;;2.80;;
36501;SDS011;25393;46.108;3.390;2022-09-20T12:05:06;4.30;;;3.20;;
36501;SDS011;25393;46.108;3.390;2022-09-20T12:08:01;7.30;;;6.70;;
36501;SDS011;25393;46.108;3.390;2022-09-20T12:10:32;5.18;;;4.78;;
36501;SDS011;25393;46.108;3.390;2022-09-20T12:13:03;3.60;;;3.03;;
36501;SDS011;25393;46.108;3.390;2022-09-20T12:15:33;10.65;;;3.75;;
36501;SDS011;25393;46.108;3.390;2022-09-20T12:26:09;8.73;;;3.35;;
36501;SDS011;25393;46.108;3.390;2022-09-20T12:28:47;5.38;;;3.15;;
36501;SDS011;25393;46.108;3.390;2022-09-20T12:33:58;5.13;;;4.13;;
36501;SDS011;25393;46.108;3.390;2022-09-20T12:36:39;7.22;;;3.40;;
36501;SDS011;25393;46.108;3.390;2022-09-20T12:41:44;9.10;;;5.68;;
36501;SDS011;25393;46.108;3.390;2022-09-20T12:49:41;3.70;;;3.40;;
36501;SDS011;25393;46.108;3.390;2022-09-20T12:57:53;4.32;;;3.33;;
36501;SDS011;25393;46.108;3.390;2022-09-20T13:00:33;10.00;;;3.58;;
36501;SDS011;25393;46.108;3.390;2022-09-20T13:03:24;5.60;;;3.72;;
36501;SDS011;25393;46.108;3.390;2022-09-20T13:14:24;3.97;;;3.60;;
36501;SDS011;25393;46.108;3.390;2022-09-20T13:16:55;3.80;;;3.20;;
36501;SDS011;25393;46.108;3.390;2022-09-20T13:19:26;4.20;;;3.58;;
36501;SDS011;25393;46.108;3.390;2022-09-20T13:22:11;8.18;;;3.70;;
36501;SDS011;25393;46.108;3.390;2022-09-20T13:24:44;7.30;;;6.70;;
36501;SDS011;25393;46.108;3.390;2022-09-20T13:30:08;3.90;;;3.55;;
36501;SDS011;25393;46.108;3.390;2022-09-20T13:32:47;6.20;;;4.03;;
36501;SDS011;25393;46.108;3.390;2022-09-20T13:35:16;7.78;;;3.85;;
36501;SDS011;25393;46.108;3.390;2022-09-20T13:40:37;3.95;;;3.60;;
36501;SDS011;25393;46.108;3.390;2022-09-20T13:45:51;13.70;;;4.47;;
36501;SDS011;25393;46.108;3.390;2022-09-20T13:48:26;7.82;;;3.72;;
36501;SDS011;25393;46.108;3.390;2022-09-20T13:50:54;6.15;;;3.80;;
36501;SDS011;25393;46.108;3.390;2022-09-20T13:53:23;6.80;;;3.60;;
36501;SDS011;25393;46.108;3.390;2022-09-20T13:56:10;4.65;;;3.40;;
36501;SDS011;25393;46.108;3.390;2022-09-20T13:58:45;8.70;;;3.58;;
36501;SDS011;25393;46.108;3.390;2022-09-20T14:03:50;5.60;;;3.42;;
36501;SDS011;25393;46.108;3.390;2022-09-20T14:06:21;7.25;;;3.60;;
36501;SDS011;25393;46.108;3.390;2022-09-20T14:08:54;5.38;;;3.38;;
36501;SDS011;25393;46.108;3.390;2022-09-20T14:11:27;6.75;;;3.53;;
36501;SDS011;25393;46.108;3.390;2022-09-20T14:13:59;6.85;;;4.55;;
36501;SDS011;25393;46.108;3.390;2022-09-20T14:16:29;3.35;;;3.05;;
36501;SDS011;25393;46.108;3.390;2022-09-20T14:18:58;4.53;;;3.25;;
36501;SDS011;25393;46.108;3.390;2022-09-20T14:21:27;5.80;;;3.70;;
36501;SDS011;25393;46.108;3.390;2022-09-20T14:26:32;9.88;;;4.00;;
36501;SDS011;25393;46.108;3.390;2022-09-20T14:35:18;8.10;;;3.70;;
36501;SDS011;25393;46.108;3.390;2022-09-20T14:37:48;8.60;;;3.75;;
36501;SDS011;25393;46.108;3.390;2022-09-20T14:40:18;6.50;;;3.60;;
36501;SDS011;25393;46.108;3.390;2022-09-20T14:45:20;6.97;;;3.30;;
36501;SDS011;25393;46.108;3.390;2022-09-20T14:47:51;5.50;;;3.15;;
36501;SDS011;25393;46.108;3.390;2022-09-20T14:55:29;4.57;;;3.17;;
36501;SDS011;25393;46.108;3.390;2022-09-20T14:58:10;3.25;;;3.00;;
36501;SDS011;25393;46.108;3.390;2022-09-20T15:01:04;4.65;;;3.50;;
36501;SDS011;25393;46.108;3.390;2022-09-20T15:03:49;5.57;;;4.82;;
36501;SDS011;25393;46.108;3.390;2022-09-20T15:06:17;5.28;;;3.30;;
36501;SDS011;25393;46.108;3.390;2022-09-20T15:08:44;8.07;;;3.50;;
36501;SDS011;25393;46.108;3.390;2022-09-20T15:11:18;4.63;;;3.40;;
36501;SDS011;25393;46.108;3.390;2022-09-20T15:13:45;4.50;;;3.33;;
36501;SDS011;25393;46.108;3.390;2022-09-20T15:16:12;3.90;;;3.60;;
36501;SDS011;25393;46.108;3.390;2022-09-20T15:18:41;4.13;;;3.80;;
36501;SDS011;25393;46.108;3.390;2022-09-20T15:21:09;5.82;;;3.10;;
36501;SDS011;25393;46.108;3.390;2022-09-20T15:23:36;4.18;;;3.40;;
36501;SDS011;25393;46.108;3.390;2022-09-20T15:26:05;6.65;;;3.30;;
36501;SDS011;25393;46.108;3.390;2022-09-20T15:28:32;4.82;;;2.83;;
36501;SDS011;25393;46.108;3.390;2022-09-20T15:30:59;4.22;;;3.83;;
36501;SDS011;25393;46.108;3.390;2022-09-20T15:33:28;3.75;;;3.45;;
36501;SDS011;25393;46.108;3.390;2022-09-20T15:35:59;6.07;;;3.47;;
36501;SDS011;25393;46.108;3.390;2022-09-20T15:38:27;3.40;;;3.00;;
36501;SDS011;25393;46.108;3.390;2022-09-20T15:40:54;3.78;;;2.90;;
36501;SDS011;25393;46.108;3.390;2022-09-20T15:43:22;4.38;;;3.72;;
36501;SDS011;25393;46.108;3.390;2022-09-20T15:45:55;4.63;;;3.40;;
36501;SDS011;25393;46.108;3.390;2022-09-20T15:48:26;4.22;;;3.58;;
36501;SDS011;25393;46.108;3.390;2022-09-20T15:51:01;3.40;;;3.20;;
36501;SDS011;25393;46.108;3.390;2022-09-20T15:53:31;4.57;;;3.60;;
36501;SDS011;25393;46.108;3.390;2022-09-20T15:56:04;5.28;;;3.55;;
36501;SDS011;25393;46.108;3.390;2022-09-20T15:58:42;3.65;;;3.30;;
36501;SDS011;25393;46.108;3.390;2022-09-20T16:01:31;4.22;;;3.72;;
36501;SDS011;25393;46.108;3.390;2022-09-20T16:04:06;6.28;;;3.75;;
36501;SDS011;25393;46.108;3.390;2022-09-20T16:06:38;8.05;;;3.60;;
36501;SDS011;25393;46.108;3.390;2022-09-20T16:09:06;3.80;;;3.45;;
36501;SDS011;25393;46.108;3.390;2022-09-20T16:11:33;5.43;;;3.33;;
36501;SDS011;25393;46.108;3.390;2022-09-20T16:14:01;2.40;;;1.02;;
36501;SDS011;25393;46.108;3.390;2022-09-20T16:16:29;2.25;;;1.27;;
36501;SDS011;25393;46.108;3.390;2022-09-20T16:19:04;2.67;;;0.90;;
36501;SDS011;25393;46.108;3.390;2022-09-20T16:21:47;3.97;;;1.23;;
36501;SDS011;25393;46.108;3.390;2022-09-20T16:24:27;2.03;;;1.00;;
36501;SDS011;25393;46.108;3.390;2022-09-20T16:26:59;1.75;;;0.80;;
36501;SDS011;25393;46.108;3.390;2022-09-20T16:29:27;6.00;;;0.80;;
36501;SDS011;25393;46.108;3.390;2022-09-20T16:31:55;5.80;;;1.38;;
36501;SDS011;25393;46.108;3.390;2022-09-20T16:34:24;3.25;;;0.80;;
36501;SDS011;25393;46.108;3.390;2022-09-20T16:36:59;5.43;;;1.13;;
36501;SDS011;25393;46.108;3.390;2022-09-20T16:39:31;4.05;;;0.98;;
36501;SDS011;25393;46.108;3.390;2022-09-20T16:41:58;6.05;;;1.13;;
36501;SDS011;25393;46.108;3.390;2022-09-20T16:44:34;3.00;;;0.80;;
36501;SDS011;25393;46.108;3.390;2022-09-20T16:47:02;6.93;;;1.67;;
36501;SDS011;25393;46.108;3.390;2022-09-20T16:49:32;6.10;;;0.80;;
36501;SDS011;25393;46.108;3.390;2022-09-20T16:52:00;2.67;;;0.80;;
36501;SDS011;25393;46.108;3.390;2022-09-20T16:54:30;3.50;;;1.00;;
36501;SDS011;25393;46.108;3.390;2022-09-20T16:56:57;2.03;;;0.90;;
36501;SDS011;25393;46.108;3.390;2022-09-20T16:59:26;0.75;;;0.52;;
36501;SDS011;25393;46.108;3.390;2022-09-20T17:01:53;1.83;;;0.73;;
36501;SDS011;25393;46.108;3.390;2022-09-20T17:04:20;3.47;;;1.20;;
36501;SDS011;25393;46.108;3.390;2022-09-20T17:06:47;3.08;;;0.60;;
36501;SDS011;25393;46.108;3.390;2022-09-20T17:09:17;4.20;;;0.88;;
36501;SDS011;25393;46.108;3.390;2022-09-20T17:11:45;2.92;;;0.80;;
36501;SDS011;25393;46.108;3.390;2022-09-20T17:14:17;3.72;;;0.70;;
36501;SDS011;25393;46.108;3.390;2022-09-20T17:16:46;5.65;;;0.90;;
36501;SDS011;25393;46.108;3.390;2022-09-20T17:19:17;2.15;;;0.60;;
36501;SDS011;25393;46.108;3.390;2022-09-20T17:21:45;0.95;;;0.70;;
36501;SDS011;25393;46.108;3.390;2022-09-20T17:24:20;3.67;;;0.60;;
36501;SDS011;25393;46.108;3.390;2022-09-20T17:26:48;3.83;;;0.80;;
36501;SDS011;25393;46.108;3.390;2022-09-20T17:29:16;9.13;;;1.67;;
36501;SDS011;25393;46.108;3.390;2022-09-20T17:31:45;2.70;;;0.90;;
36501;SDS011;25393;46.108;3.390;2022-09-20T17:34:20;1.48;;;0.63;;
36501;SDS011;25393;46.108;3.390;2022-09-20T17:36:48;1.85;;;0.60;;
36501;SDS011;25393;46.108;3.390;2022-09-20T17:39:16;3.85;;;0.70;;
36501;SDS011;25393;46.108;3.390;2022-09-20T17:41:44;1.90;;;0.70;;
36501;SDS011;25393;46.108;3.390;2022-09-20T17:44:12;5.35;;;0.90;;
36501;SDS011;25393;46.108;3.390;2022-09-20T17:46:41;3.92;;;1.25;;
36501;SDS011;25393;46.108;3.390;2022-09-20T17:49:13;6.28;;;0.93;;
36501;SDS011;25393;46.108;3.390;2022-09-20T17:51:42;4.20;;;0.95;;
36501;SDS011;25393;46.108;3.390;2022-09-20T17:54:10;4.57;;;0.90;;
36501;SDS011;25393;46.108;3.390;2022-09-20T17:56:42;6.38;;;0.63;;
36501;SDS011;25393;46.108;3.390;2022-09-20T17:59:14;4.40;;;0.98;;
36501;SDS011;25393;46.108;3.390;2022-09-20T18:01:42;3.65;;;1.17;;
36501;SDS011;25393;46.108;3.390;2022-09-20T18:04:11;3.63;;;0.90;;
36501;SDS011;25393;46.108;3.390;2022-09-20T18:06:39;4.60;;;1.15;;
36501;SDS011;25393;46.108;3.390;2022-09-20T18:09:17;3.88;;;0.82;;
36501;SDS011;25393;46.108;3.390;2022-09-20T18:11:46;4.70;;;1.25;;
36501;SDS011;25393;46.108;3.390;2022-09-20T18:14:19;4.05;;;0.90;;
36501;SDS011;25393;46.108;3.390;2022-09-20T18:16:50;2.58;;;1.00;;
36501;SDS011;25393;46.108;3.390;2022-09-20T18:19:17;2.58;;;0.63;;
36501;SDS011;25393;46.108;3.390;2022-09-20T18:21:44;1.92;;;0.90;;
36501;SDS011;25393;46.108;3.390;2022-09-20T18:24:10;2.78;;;0.90;;
36501;SDS011;25393;46.108;3.390;2022-09-20T18:26:37;1.55;;;0.73;;
36501;SDS011;25393;46.108;3.390;2022-09-20T18:29:11;3.80;;;0.98;;
36501;SDS011;25393;46.108;3.390;2022-09-20T18:31:40;8.68;;;1.35;;
36501;SDS011;25393;46.108;3.390;2022-09-20T18:34:31;5.55;;;0.90;;
36501;SDS011;25393;46.108;3.390;2022-09-20T18:36:59;3.78;;;0.63;;
36501;SDS011;25393;46.108;3.390;2022-09-20T18:39:27;4.65;;;1.10;;
36501;SDS011;25393;46.108;3.390;2022-09-20T18:41:56;7.03;;;0.98;;
36501;SDS011;25393;46.108;3.390;2022-09-20T18:44:22;3.05;;;0.82;;
36501;SDS011;25393;46.108;3.390;2022-09-20T18:46:52;3.25;;;0.80;;
36501;SDS011;25393;46.108;3.390;2022-09-20T18:49:20;9.38;;;0.90;;
36501;SDS011;25393;46.108;3.390;2022-09-20T18:51:50;1.08;;;0.60;;
36501;SDS011;25393;46.108;3.390;2022-09-20T18:54:17;8.13;;;1.00;;
36501;SDS011;25393;46.108;3.390;2022-09-20T18:56:44;5.63;;;1.02;;
36501;SDS011;25393;46.108;3.390;2022-09-20T19:10:24;7.35;;;1.02;;
36501;SDS011;25393;46.108;3.390;2022-09-20T19:16:19;3.10;;;0.80;;
36501;SDS011;25393;46.108;3.390;2022-09-20T19:24:38;6.38;;;1.23;;
36501;SDS011;25393;46.108;3.390;2022-09-20T19:27:04;5.38;;;1.20;;
36501;SDS011;25393;46.108;3.390;2022-09-20T19:29:34;2.20;;;0.88;;
36501;SDS011;25393;46.108;3.390;2022-09-20T19:32:18;4.88;;;1.17;;
36501;SDS011;25393;46.108;3.390;2022-09-20T19:34:50;2.60;;;0.73;;
36501;SDS011;25393;46.108;3.390;2022-09-20T19:45:39;3.42;;;0.90;;
36501;SDS011;25393;46.108;3.390;2022-09-20T19:51:01;5.38;;;1.17;;
36501;SDS011;25393;46.108;3.390;2022-09-20T19:53:30;3.75;;;0.93;;
36501;SDS011;25393;46.108;3.390;2022-09-20T19:56:07;4.95;;;0.77;;
36501;SDS011;25393;46.108;3.390;2022-09-20T19:58:39;5.50;;;1.00;;
36501;SDS011;25393;46.108;3.390;2022-09-20T20:01:08;3.50;;;1.10;;
36501;SDS011;25393;46.108;3.390;2022-09-20T20:03:35;4.38;;;0.98;;
36501;SDS011;25393;46.108;3.390;2022-09-20T20:06:03;8.15;;;0.95;;
36501;SDS011;25393;46.108;3.390;2022-09-20T20:08:48;5.82;;;1.02;;
36501;SDS011;25393;46.108;3.390;2022-09-20T20:11:31;3.40;;;0.90;;
36501;SDS011;25393;46.108;3.390;2022-09-20T20:22:26;5.88;;;1.15;;
36501;SDS011;25393;46.108;3.390;2022-09-20T20:25:43;2.88;;;1.10;;
36501;SDS011;25393;46.108;3.390;2022-09-20T20:28:07;3.75;;;1.00;;
36501;SDS011;25393;46.108;3.390;2022-09-20T20:30:34;4.68;;;0.98;;
36501;SDS011;25393;46.108;3.390;2022-09-20T20:33:01;3.78;;;1.30;;
36501;SDS011;25393;46.108;3.390;2022-09-20T20:35:31;2.47;;;1.15;;
36501;SDS011;25393;46.108;3.390;2022-09-20T20:37:57;3.75;;;1.08;;
36501;SDS011;25393;46.108;3.390;2022-09-20T20:40:24;5.63;;;1.58;;
36501;SDS011;25393;46.108;3.390;2022-09-20T20:42:54;3.67;;;1.00;;
36501;SDS011;25393;46.108;3.390;2022-09-20T20:45:28;7.13;;;1.23;;
36501;SDS011;25393;46.108;3.390;2022-09-20T20:47:58;5.20;;;1.70;;
36501;SDS011;25393;46.108;3.390;2022-09-20T20:50:25;2.40;;;1.02;;
36501;SDS011;25393;46.108;3.390;2022-09-20T20:52:53;7.07;;;1.85;;
36501;SDS011;25393;46.108;3.390;2022-09-20T20:55:21;4.72;;;1.20;;
36501;SDS011;25393;46.108;3.390;2022-09-20T20:57:53;2.03;;;1.00;;
36501;SDS011;25393;46.108;3.390;2022-09-20T21:00:25;5.65;;;1.73;;
36501;SDS011;25393;46.108;3.390;2022-09-20T21:02:59;8.00;;;1.33;;
36501;SDS011;25393;46.108;3.390;2022-09-20T21:05:26;3.35;;;1.45;;
36501;SDS011;25393;46.108;3.390;2022-09-20T21:07:54;5.60;;;1.38;;
36501;SDS011;25393;46.108;3.390;2022-09-20T21:10:21;5.18;;;1.40;;
36501;SDS011;25393;46.108;3.390;2022-09-20T21:12:48;3.40;;;1.20;;
36501;SDS011;25393;46.108;3.390;2022-09-20T21:15:18;3.92;;;1.13;;
36501;SDS011;25393;46.108;3.390;2022-09-20T21:17:50;6.38;;;1.30;;
36501;SDS011;25393;46.108;3.390;2022-09-20T21:20:17;4.07;;;1.20;;
36501;SDS011;25393;46.108;3.390;2022-09-20T21:22:44;3.28;;;1.17;;
36501;SDS011;25393;46.108;3.390;2022-09-20T21:25:11;4.50;;;1.73;;
36501;SDS011;25393;46.108;3.390;2022-09-20T21:27:37;6.32;;;1.30;;
36501;SDS011;25393;46.108;3.390;2022-09-20T21:30:04;5.38;;;1.77;;
36501;SDS011;25393;46.108;3.390;2022-09-20T21:32:31;5.28;;;1.17;;
36501;SDS011;25393;46.108;3.390;2022-09-20T21:34:58;5.03;;;1.45;;